Time;durP1;ratioP1;P1;durP2;ratioP2;P2;SDS_P1;SDS_P2;PMS_P1;PMS_P2;Temp;Humidity;BMP_temperature;BMP_pressure;BME280_temperature;BME280_humidity;BME280_pressure;Samples;Min_cycle;Max_cycle;Signal;HPM_P1;HPM_P2
2023/12/07 00:01:56;;;;;;;22.48;18.98;;;;;;;-2.03;100.00;101918.16;6126165;23;20009;-87
2023/12/07 00:04:22;;;;;;;23.63;18.33;;;;;;;-3.32;100.00;101705.72;6125108;23;20124;-86
2023/12/07 00:06:57;;;;;;;23.52;19.20;;;;;;;-3.37;100.00;101711.53;6126503;23;20427;-87
2023/12/07 00:09:25;;;;;;;24.20;19.45;;;;;;;-2.02;100.00;101947.69;6100733;23;20034;-86
2023/12/07 00:12:15;;;;;;;22.48;18.75;;;;;;;-1.73;100.00;101983.31;6135873;23;20387;-87
2023/12/07 00:17:43;;;;;;;;;;;;;;;-1.75;100.00;101981.63;6162450;23;20027;-87
2023/12/07 00:25:24;;;;;;;26.35;20.48;;;;;;;-2.52;100.00;101863.00;6160727;23;20021;-86
2023/12/07 00:30:43;;;;;;;25.30;20.75;;;;;;;-1.89;100.00;101973.06;6147236;23;19924;-87
2023/12/07 00:38:20;;;;;;;27.15;21.27;;;;;;;-3.45;100.00;101721.56;6135554;23;20030;-86
2023/12/07 00:41:00;;;;;;;30.88;21.35;;;;;;;-3.69;100.00;101686.03;6092885;23;20380;-87
2023/12/07 00:43:34;;;;;;;27.77;21.80;;;;;;;-2.91;100.00;101823.94;6094008;23;20010;-87
2023/12/07 00:46:10;;;;;;;29.77;22.85;;;;;;;-3.46;100.00;101745.97;6106445;23;20452;-87
2023/12/07 00:51:34;;;;;;;30.23;22.08;;;;;;;-1.98;100.00;101983.97;6130027;23;20025;-86
2023/12/07 00:57:02;;;;;;;27.48;21.05;;;;;;;-3.69;100.00;101712.09;6180312;23;20076;-86
2023/12/07 01:13:02;;;;;;;31.70;23.95;;;;;;;-2.14;100.00;101983.03;6155107;23;20016;-86
2023/12/07 01:15:46;;;;;;;28.90;22.27;;;;;;;-3.96;100.00;101689.13;6131650;23;20041;-87
2023/12/07 01:18:20;;;;;;;28.58;22.55;;;;;;;-3.03;100.00;101851.63;6154038;23;20033;-87
2023/12/07 01:21:01;;;;;;;28.80;22.70;;;;;;;-2.95;100.00;101855.03;6128931;23;20002;-87
2023/12/07 01:23:39;;;;;;;31.52;23.05;;;;;;;-3.47;100.00;101772.06;6128889;23;20005;-87
2023/12/07 01:26:16;;;;;;;31.08;22.80;;;;;;;-3.43;100.00;101777.16;6129110;23;20060;-87
2023/12/07 01:32:19;;;;;;;29.10;22.63;;;;;;;-3.39;100.00;101799.06;6154886;23;20023;-87
2023/12/07 01:34:44;;;;;;;28.27;22.15;;;;;;;-3.92;100.00;101721.13;6129592;23;20344;-86
2023/12/07 01:37:27;;;;;;;30.23;23.13;;;;;;;-3.89;100.00;101721.16;6130998;23;20008;-87
2023/12/07 01:40:09;;;;;;;28.73;21.98;;;;;;;-2.81;100.00;101909.13;6130905;23;20005;-87
2023/12/07 01:42:34;;;;;;;29.00;21.92;;;;;;;-3.04;100.00;101863.41;6130904;23;19997;-87
2023/12/07 01:45:06;;;;;;;30.65;22.20;;;;;;;-3.66;100.00;101764.28;6156998;23;20439;-87
2023/12/07 01:47:35;;;;;;;29.23;22.75;;;;;;;-2.31;100.00;102005.66;6131057;23;20009;-87
2023/12/07 01:50:00;;;;;;;27.98;21.45;;;;;;;-3.99;100.00;101710.13;6157512;23;20006;-87
2023/12/07 01:52:28;;;;;;;26.63;20.52;;;;;;;-3.47;100.00;101822.56;6155772;23;20096;-87
2023/12/07 01:55:08;;;;;;;26.42;20.23;;;;;;;-2.36;100.00;101994.66;6130545;23;20051;-87
2023/12/07 01:57:37;;;;;;;28.85;20.67;;;;;;;-2.37;100.00;102007.28;6131074;23;20110;-87
2023/12/07 02:00:07;;;;;;;28.10;21.75;;;;;;;-2.73;100.00;101942.06;6157258;23;20005;-88
2023/12/07 02:02:45;;;;;;;25.92;20.80;;;;;;;-2.37;100.00;102015.72;6130731;23;20088;-87
2023/12/07 02:08:12;;;;;;;27.77;21.27;;;;;;;-4.19;100.00;101699.81;6146539;23;20033;-86
2023/12/07 02:10:41;;;;;;;28.70;21.33;;;;;;;-4.04;100.00;101725.19;6101456;23;20013;-87
2023/12/07 02:13:07;;;;;;;28.80;20.98;;;;;;;-3.91;100.00;101761.50;6127325;23;20233;-87
2023/12/07 02:15:44;;;;;;;25.73;20.63;;;;;;;-3.98;100.00;101742.06;6127437;23;20005;-87
2023/12/07 02:25:09;;;;;;;28.48;21.70;;;;;;;-3.08;100.00;101919.78;6146710;23;20395;-87
2023/12/07 02:27:38;;;;;;;28.27;21.55;;;;;;;-2.63;100.00;101997.78;6127030;23;20061;-87
2023/12/07 02:30:16;;;;;;;26.77;21.52;;;;;;;-3.66;100.00;101833.28;6125930;23;20006;-88
2023/12/07 02:32:56;;;;;;;29.67;22.33;;;;;;;-3.24;100.00;101890.16;6101681;23;20040;-88
2023/12/07 02:35:29;;;;;;;27.50;21.40;;;;;;;-3.44;100.00;101861.28;6101414;23;20479;-87
2023/12/07 02:38:05;;;;;;;28.35;21.30;;;;;;;-4.19;100.00;101726.69;6126831;23;20014;-87
2023/12/07 02:40:31;;;;;;;28.65;21.83;;;;;;;-3.08;100.00;101893.69;6101168;23;20065;-88
2023/12/07 02:42:59;;;;;;;29.83;22.65;;;;;;;-3.40;100.00;101831.06;6127634;23;20060;-87
2023/12/07 02:45:26;;;;;;;31.90;23.10;;;;;;;-2.84;100.00;101895.63;6128458;23;20014;-87
2023/12/07 02:47:51;;;;;;;33.60;24.08;;;;;;;-2.52;100.00;101933.81;6133229;23;20009;-87
2023/12/07 02:50:54;;;;;;;33.30;23.67;;;;;;;-2.06;100.00;101988.16;6101518;23;20006;-87
2023/12/07 02:53:39;;;;;;;44.13;27.33;;;;;;;-1.92;100.00;101991.63;6100878;23;20084;-87
2023/12/07 02:56:17;;;;;;;60.08;30.27;;;;;;;-2.45;100.00;101874.88;6101310;23;20450;-87
2023/12/07 03:01:32;;;;;;;61.15;32.55;;;;;;;-2.48;100.00;101836.88;6126899;23;20037;-86
2023/12/07 03:03:57;;;;;;;75.70;33.72;;;;;;;-2.85;100.00;101763.34;6126968;23;20377;-87
2023/12/07 03:07:06;;;;;;;93.85;33.25;;;;;;;-1.36;100.00;101992.81;6125788;23;20029;-88
2023/12/07 03:09:47;;;;;;;83.93;33.08;;;;;;;-2.29;100.00;101825.22;6126812;23;20013;-88
2023/12/07 03:12:12;;;;;;;68.53;31.70;;;;;;;-2.20;100.00;101851.41;6126639;23;20009;-87
2023/12/07 03:15:05;;;;;;;78.70;31.65;;;;;;;-1.24;100.00;102010.59;6125479;23;20013;-87
2023/12/07 03:17:31;;;;;;;58.33;31.33;;;;;;;-2.69;100.00;101762.59;6126680;23;20016;-86
2023/12/07 03:20:10;;;;;;;64.35;31.88;;;;;;;-2.63;100.00;101774.44;6126698;23;20033;-86
2023/12/07 03:25:16;;;;;;;90.68;30.58;;;;;;;-2.51;100.00;101793.88;6129011;23;20029;-87
2023/12/07 03:27:41;;;;;;;91.43;31.15;;;;;;;-2.92;100.00;101732.13;6100551;23;20009;-86
2023/12/07 03:30:25;;;;;;;67.72;30.08;;;;;;;-2.85;100.00;101735.53;6103203;23;20118;-87
2023/12/07 03:32:50;;;;;;;64.50;29.00;;;;;;;-2.22;100.00;101837.06;6126299;23;20073;-87
2023/12/07 03:35:36;;;;;;;67.20;28.40;;;;;;;-2.74;100.00;101756.66;6126229;23;20044;-86
2023/12/07 03:40:51;;;;;;;79.45;30.52;;;;;;;-2.83;100.00;101725.44;6158712;23;20034;-86
2023/12/07 03:44:39;;;;;;;85.03;30.23;;;;;;;-1.16;100.00;102009.81;6144590;23;20027;-87
2023/12/07 03:47:05;;;;;;;67.68;26.45;;;;;;;-2.83;100.00;101741.44;6130099;23;20339;-86
2023/12/07 03:49:41;;;;;;;87.88;28.90;;;;;;;-1.25;100.00;102007.22;6156022;23;20032;-85
2023/12/07 03:52:17;;;;;;;68.00;26.15;;;;;;;-2.83;100.00;101751.56;6155818;23;20052;-87
2023/12/07 03:54:45;;;;;;;103.57;28.40;;;;;;;-2.82;100.00;101757.44;6129194;23;20502;-86
2023/12/07 03:57:17;;;;;;;92.85;27.50;;;;;;;-2.77;100.00;101765.91;6155589;23;20005;-86
2023/12/07 03:59:48;;;;;;;79.40;29.10;;;;;;;-3.17;100.00;101720.97;6155516;23;20007;-86
2023/12/07 04:02:13;;;;;;;77.97;29.80;;;;;;;-2.05;100.00;101899.59;6155833;23;19998;-87
2023/12/07 04:04:50;;;;;;;71.32;27.67;;;;;;;-2.18;100.00;101867.44;6155543;23;20001;-87
2023/12/07 04:07:23;;;;;;;100.15;28.35;;;;;;;-2.73;100.00;101781.09;6155422;23;20005;-87
2023/12/07 04:09:49;;;;;;;85.60;26.52;;;;;;;-2.88;100.00;101755.72;6155346;23;20434;-87
2023/12/07 04:12:26;;;;;;;70.72;26.42;;;;;;;-2.70;100.00;101796.28;6129209;23;20009;-86
2023/12/07 04:14:58;;;;;;;79.63;27.35;;;;;;;-2.50;100.00;101818.34;6155396;23;20554;-86
2023/12/07 04:17:33;;;;;;;76.45;27.38;;;;;;;-2.79;100.00;101758.31;6129887;23;20012;-86
2023/12/07 04:20:02;;;;;;;73.95;26.85;;;;;;;-2.81;100.00;101762.50;6130373;23;20001;-86
2023/12/07 04:22:28;;;;;;;74.07;28.48;;;;;;;-2.74;100.00;101771.84;6155512;23;20005;-86
2023/12/07 04:25:28;;;;;;;85.90;27.70;;;;;;;-1.16;100.00;102044.44;6154898;23;20017;-86
2023/12/07 04:27:56;;;;;;;59.92;27.17;;;;;;;-2.77;100.00;101774.31;6129402;23;20005;-86
2023/12/07 04:30:25;;;;;;;72.57;26.60;;;;;;;-1.67;100.00;101942.00;6155641;23;20039;-86
2023/12/07 04:32:50;;;;;;;86.30;29.25;;;;;;;-2.40;100.00;101825.16;6155627;23;20005;-86
2023/12/07 04:35:24;;;;;;;72.93;27.08;;;;;;;-1.28;100.00;102002.16;6155128;23;20338;-86
2023/12/07 04:38:12;;;;;;;83.70;27.83;;;;;;;-1.02;100.00;102039.41;6155012;23;20006;-86
2023/12/07 04:40:43;;;;;;;67.22;25.05;;;;;;;-2.17;100.00;101850.56;6154964;23;20006;-86
2023/12/07 04:43:09;;;;;;;70.50;26.70;;;;;;;-2.52;100.00;101792.19;6150734;23;20455;-87
2023/12/07 04:56:35;;;;;;;90.10;25.95;;;;;;;-2.30;100.00;101819.31;6134020;23;20350;-86
2023/12/07 05:07:09;;;;;;;58.30;23.27;;;;;;;-0.95;100.00;102016.63;6125847;23;20118;-88
2023/12/07 05:09:43;;;;;;;66.03;21.73;;;;;;;-2.45;100.00;101781.28;6125164;23;20034;-88
2023/12/07 05:12:26;;;;;;;57.03;21.90;;;;;;;-2.45;100.00;101761.06;6125872;23;20329;-87
2023/12/07 05:15:05;;;;;;;67.75;24.40;;;;;;;-1.49;100.00;101915.88;6099830;23;20010;-88
2023/12/07 05:17:33;;;;;;;86.53;24.65;;;;;;;-2.51;100.00;101763.53;6125865;23;20037;-88
2023/12/07 05:20:12;;;;;;;73.03;23.17;;;;;;;-2.34;100.00;101803.28;6100021;23;20005;-88
2023/12/07 05:22:46;;;;;;;83.20;24.08;;;;;;;-1.53;100.00;101922.66;6125796;23;20324;-87
2023/12/07 05:25:11;;;;;;;48.13;21.70;;;;;;;-1.77;100.00;101887.06;6125341;23;20013;-86
2023/12/07 05:27:37;;;;;;;70.93;22.40;;;;;;;-0.92;100.00;102044.53;6125553;23;20006;-88
2023/12/07 05:30:14;;;;;;;68.00;22.63;;;;;;;-2.15;100.00;101819.41;6125661;23;20320;-87
2023/12/07 05:35:13;;;;;;;70.07;20.77;;;;;;;-2.48;100.00;101764.38;6155251;23;20025;-87
2023/12/07 05:37:39;;;;;;;50.65;19.83;;;;;;;-1.83;100.00;101866.78;6154970;23;20020;-86
2023/12/07 05:40:37;;;;;;;68.15;20.58;;;;;;;-1.55;100.00;101908.28;6152997;23;20320;-86
2023/12/07 05:43:11;;;;;;;62.80;20.48;;;;;;;-2.22;100.00;101805.03;6153979;23;20013;-86
2023/12/07 05:45:58;;;;;;;97.13;20.85;;;;;;;-0.93;100.00;102014.09;6154901;23;20009;-86
2023/12/07 05:48:35;;;;;;;102.45;20.67;;;;;;;-2.53;100.00;101750.91;6129160;23;20428;-86
2023/12/07 05:51:04;;;;;;;62.30;18.45;;;;;;;-2.49;100.00;101760.19;6155601;23;20375;-86
2023/12/07 05:53:45;;;;;;;63.08;17.27;;;;;;;-2.20;100.00;101803.34;6155904;23;20005;-86
2023/12/07 05:56:25;;;;;;;61.25;16.45;;;;;;;-1.88;100.00;101850.72;6155199;23;20061;-85
2023/12/07 05:59:13;;;;;;;63.43;17.73;;;;;;;-0.90;100.00;102007.34;6154869;23;20001;-87
2023/12/07 06:01:38;;;;;;;66.95;18.73;;;;;;;-2.59;100.00;101725.56;6129185;23;20442;-86
2023/12/07 06:04:22;;;;;;;61.08;18.65;;;;;;;-2.40;100.00;101762.75;6154801;23;20029;-86
2023/12/07 06:06:55;;;;;;;40.38;16.52;;;;;;;-2.48;100.00;101738.25;6154984;23;20010;-86
2023/12/07 06:09:26;;;;;;;55.50;18.13;;;;;;;-1.86;100.00;101846.53;6154896;23;20008;-85
2023/12/07 06:11:52;;;;;;;60.65;17.50;;;;;;;-0.96;100.00;102003.97;6154332;23;20039;-85
2023/12/07 06:14:29;;;;;;;54.05;16.42;;;;;;;-2.39;100.00;101750.97;6128754;23;20006;-84
2023/12/07 06:16:55;;;;;;;75.00;16.83;;;;;;;-2.20;100.00;101798.28;6155112;23;20005;-86
2023/12/07 06:19:21;;;;;;;75.50;17.17;;;;;;;-2.55;100.00;101739.09;6154651;23;20420;-84
2023/12/07 06:21:55;;;;;;;78.95;16.95;;;;;;;-2.49;100.00;101751.75;6156374;23;20009;-85
2023/12/07 06:24:30;;;;;;;51.83;16.73;;;;;;;-1.62;100.00;101876.16;6157021;23;20033;-84
2023/12/07 06:27:11;;;;;;;67.32;17.45;;;;;;;-2.66;100.00;101717.09;6130550;23;20060;-87
2023/12/07 06:29:36;;;;;;;47.63;16.40;;;;;;;-1.76;100.00;101876.97;6130449;23;20444;-87
2023/12/07 06:32:15;;;;;;;52.50;16.58;;;;;;;-2.16;100.00;101792.41;6130821;23;20005;-87
2023/12/07 06:35:12;;;;;;;63.92;18.40;;;;;;;-0.71;100.00;102026.00;6155670;23;20021;-87
2023/12/07 06:37:41;;;;;;;72.63;20.88;;;;;;;-1.23;100.00;101928.66;6130283;23;20013;-86
2023/12/07 06:42:51;;;;;;;60.20;20.20;;;;;;;-1.71;100.00;101843.22;6132764;23;20030;-87
2023/12/07 06:45:38;;;;;;;50.70;16.63;;;;;;;-0.65;100.00;101994.75;6101309;23;20005;-86
2023/12/07 06:50:57;;;;;;;88.95;17.73;;;;;;;-1.85;100.00;101805.19;6136511;23;20348;-85
2023/12/07 06:56:14;;;;;;;57.55;16.73;;;;;;;-1.50;100.00;101841.59;6155080;23;20239;-87
2023/12/07 06:58:40;;;;;;;42.08;16.67;;;;;;;-1.98;100.00;101763.78;6101047;23;20006;-86
2023/12/07 07:01:16;;;;;;;45.03;15.25;;;;;;;-1.08;100.00;101910.97;6100714;23;20439;-86
2023/12/07 07:03:53;;;;;;;48.97;14.40;;;;;;;-2.14;100.00;101719.03;6127188;23;20309;-88
2023/12/07 07:09:47;;;;;;;57.13;14.35;;;;;;;-1.33;100.00;101848.41;6127120;23;20101;-85
2023/12/07 07:18:27;;;;;;;47.47;14.25;;;;;;;-2.04;100.00;101748.59;6140309;23;20044;-90
2023/12/07 07:21:19;;;;;;;35.25;13.30;;;;;;;-0.51;100.00;101992.22;6152842;23;20084;-87
2023/12/07 07:33:06;;;;;;;48.50;14.88;;;;;;;-0.51;100.00;102015.91;6137330;23;20032;-92
2023/12/07 07:38:06;;;;;;;49.15;14.20;;;;;;;-1.74;100.00;101846.59;6153767;23;20355;-88
2023/12/07 07:41:03;;;;;;;65.20;14.55;;;;;;;-2.55;100.00;101694.41;6163459;23;20056;-92
2023/12/07 07:43:43;;;;;;;46.70;14.95;;;;;;;-1.47;100.00;101873.72;6070087;23;20018;-93
2023/12/07 07:46:43;;;;;;;54.85;14.07;;;;;;;-0.55;100.00;102014.22;6071363;23;20035;-94
2023/12/07 07:49:40;;;;;;;56.45;14.70;;;;;;;-0.57;100.00;102007.44;6123561;23;20024;-92
2023/12/07 07:52:06;;;;;;;49.25;13.80;;;;;;;-2.14;100.00;101750.25;6167207;23;20013;-94
2023/12/07 07:57:11;;;;;;;42.60;13.98;;;;;;;-0.92;100.00;101965.09;6158864;23;20036;-90
2023/12/07 08:08:49;;;;;;;42.53;15.18;;;;;;;-0.36;100.00;102002.41;6162705;23;20030;-94
2023/12/07 08:30:26;;;;;;;42.08;17.23;;;;;;;-1.41;100.00;101790.09;6184529;23;20021;-89
2023/12/07 08:45:52;;;;;;;37.97;17.00;;;;;;;-0.88;100.00;101842.56;6152397;23;20444;-93
2023/12/07 08:58:46;;;;;;;39.67;19.17;;;;;;;-1.35;100.00;101733.53;6149782;23;20037;-86
2023/12/07 09:01:32;;;;;;;36.50;18.67;;;;;;;-0.32;100.00;101916.09;6157633;23;20005;-90
2023/12/07 09:03:58;;;;;;;37.20;18.77;;;;;;;-1.03;100.00;101780.00;6159115;23;20085;-89
2023/12/07 09:06:42;;;;;;;37.85;18.48;;;;;;;-1.23;100.00;101744.53;6131605;23;20036;-90
2023/12/07 09:09:13;;;;;;;41.33;19.85;;;;;;;-0.49;100.00;101866.19;6156454;23;20064;-91
2023/12/07 09:14:31;;;;;;;36.78;19.95;;;;;;;-0.98;100.00;101764.81;6157524;23;20025;-91
2023/12/07 09:17:15;;;;;;;36.70;17.95;;;;;;;-0.71;100.00;101789.28;6130885;23;20006;-93
2023/12/07 09:28:17;;;;;;;36.25;19.00;;;;;;;-1.14;100.00;101725.94;6153665;23;20036;-87
2023/12/07 09:33:48;;;;;;;35.67;19.90;;;;;;;-0.69;100.00;101782.50;6129086;23;20399;-85
2023/12/07 09:39:33;;;;;;;34.15;18.30;;;;;;;0.50;100.00;101982.84;6126253;23;20448;-85
2023/12/07 09:42:49;;;;;;;33.42;18.17;;;;;;;0.71;100.00;101985.31;6136325;23;20022;-89
2023/12/07 09:45:36;;;;;;;36.60;18.40;;;;;;;0.76;100.00;101986.13;6155253;23;20018;-85
2023/12/07 09:48:04;;;;;;;36.45;19.38;;;;;;;-0.72;100.00;101721.66;6129301;23;20016;-85
2023/12/07 09:50:30;;;;;;;36.60;19.33;;;;;;;-0.50;100.00;101748.66;6155060;23;20324;-87
2023/12/07 09:53:07;;;;;;;34.97;18.45;;;;;;;0.08;100.00;101844.09;6154412;23;20017;-87
2023/12/07 09:59:19;;;;;;;37.92;19.00;;;;;;;0.34;100.00;101865.16;6155923;23;20028;-91
2023/12/07 10:01:45;;;;;;;38.47;19.67;;;;;;;-0.65;100.00;101681.06;6130835;23;20006;-91
2023/12/07 10:04:26;;;;;;;39.15;18.35;;;;;;;0.14;100.00;101795.81;6131230;23;20446;-90
2023/12/07 10:07:10;;;;;;;33.07;18.57;;;;;;;1.15;100.00;101946.09;6131892;23;20006;-92
2023/12/07 10:09:42;;;;;;;41.72;20.13;;;;;;;-0.35;100.00;101669.09;6156972;23;20241;-87
2023/12/07 10:12:25;;;;;;;36.67;18.92;;;;;;;0.35;100.00;101764.38;6125029;23;20099;-91
2023/12/07 10:23:26;;;;;;;35.63;18.45;;;;;;;1.12;100.00;101807.06;6130575;23;20048;-87
2023/12/07 10:25:52;;;;;;;33.88;18.63;;;;;;;0.24;100.00;101645.06;6126477;23;20014;-82
2023/12/07 10:28:26;;;;;;;32.03;18.17;;;;;;;1.34;100.00;101822.13;6129543;23;20002;-87
2023/12/07 10:33:33;;;;;;;;;;;;;;;1.98;100.00;101891.13;6147068;23;20032;-84
2023/12/07 10:35:58;;;;;;;29.08;18.00;;;;;;;0.65;100.00;101676.94;6130688;23;19912;-84
2023/12/07 10:38:50;;;;;;;28.05;17.55;;;;;;;2.07;100.00;101872.34;6123649;23;20064;-84
2023/12/07 10:41:26;;;;;;;29.00;17.13;;;;;;;1.38;100.00;101755.94;6100965;23;20024;-86
2023/12/07 10:46:29;;;;;;;33.20;18.45;;;;;;;0.94;100.00;101676.66;6127348;23;20022;-85
2023/12/07 10:49:19;;;;;;;27.52;16.92;;;;;;;0.61;100.00;101612.56;6101185;23;20053;-86
2023/12/07 10:55:15;;;;;;;27.75;16.98;;;;;;;2.24;100.00;101860.22;6094211;23;20093;-87
2023/12/07 10:57:56;;;;;;;26.98;16.35;;;;;;;2.20;100.00;101870.50;6095104;23;20429;-86
2023/12/07 11:04:08;;;;;;;28.45;18.25;;;;;;;0.85;100.00;101604.69;6128056;23;20033;-88
2023/12/07 11:06:58;;;;;;;30.92;18.25;;;;;;;2.44;100.00;101864.25;6101192;23;20013;-85
2023/12/07 11:09:32;;;;;;;27.73;17.73;;;;;;;1.09;100.00;101616.31;6126424;23;20013;-82
2023/12/07 11:15:30;;;;;;;29.70;17.35;;;;;;;0.62;100.00;101550.72;6149770;23;20355;-87
2023/12/07 11:18:08;;;;;;;27.33;17.75;;;;;;;0.99;100.00;101616.44;6130610;23;20092;-83
2023/12/07 11:20:42;;;;;;;27.75;18.42;;;;;;;2.02;100.00;101772.19;6156460;23;20005;-83
2023/12/07 11:23:08;;;;;;;28.15;18.67;;;;;;;1.57;100.00;101677.66;6156150;23;20005;-84
2023/12/07 11:28:41;;;;;;;28.50;18.45;;;;;;;1.61;100.00;101712.41;6155440;23;20112;-84
2023/12/07 11:31:34;;;;;;;28.02;17.42;;;;;;;2.05;100.00;101804.41;6155807;23;20443;-83
2023/12/07 11:34:06;;;;;;;24.92;16.98;;;;;;;0.96;100.00;101647.81;6141810;23;20436;-84
2023/12/07 11:36:41;;;;;;;28.08;17.58;;;;;;;1.05;100.00;101662.13;6152457;23;20068;-84
2023/12/07 11:39:50;;;;;;;27.08;18.00;;;;;;;1.81;100.00;101795.38;6156357;23;20029;-84
2023/12/07 11:42:36;;;;;;;27.73;17.75;;;;;;;0.30;100.00;101555.28;6130001;23;20033;-84
2023/12/07 11:45:03;;;;;;;31.65;18.05;;;;;;;0.80;100.00;101626.78;6129844;23;20336;-84
2023/12/07 11:47:28;;;;;;;27.38;17.67;;;;;;;0.30;100.00;101566.28;6129670;23;20009;-84
2023/12/07 11:50:31;;;;;;;29.88;17.85;;;;;;;1.71;100.00;101789.53;6155942;23;20006;-86
2023/12/07 11:53:30;;;;;;;29.83;18.73;;;;;;;1.75;100.00;101778.44;6129494;23;20013;-84
2023/12/07 11:56:09;;;;;;;31.27;19.60;;;;;;;0.20;100.00;101496.94;6129391;23;20462;-84
2023/12/07 12:01:07;;;;;;;32.63;21.00;;;;;;;1.66;100.00;101722.53;6155910;23;20080;-83
2023/12/07 12:04:05;;;;;;;32.88;20.23;;;;;;;1.99;100.00;101762.03;6129566;23;20041;-84
2023/12/07 12:06:51;;;;;;;31.35;20.08;;;;;;;2.00;100.00;101761.19;6155981;23;20009;-83
2023/12/07 12:09:27;;;;;;;28.73;19.50;;;;;;;0.57;100.00;101524.50;6155525;23;20073;-88
2023/12/07 12:31:50;;;;;;;31.00;20.27;;;;;;;1.63;100.00;101608.84;6128206;23;20479;-83
2023/12/07 12:35:19;;;;;;;32.42;20.20;;;;;;;2.32;100.00;101703.84;6108319;23;20022;-81
2023/12/07 12:38:19;;;;;;;30.92;19.70;;;;;;;2.32;100.00;101707.22;6124152;23;20084;-81
2023/12/07 12:43:22;;;;;;;30.25;18.92;;;;;;;0.79;100.00;101453.94;6131100;23;20064;-81
2023/12/07 12:46:08;;;;;;;31.08;20.70;;;;;;;2.34;100.00;101697.84;6124354;23;20021;-79
2023/12/07 12:48:59;;;;;;;29.05;19.45;;;;;;;2.35;100.00;101691.88;6124968;23;20381;-83
2023/12/07 12:52:19;;;;;;;30.42;19.95;;;;;;;2.37;100.00;101682.53;6125836;23;20025;-82
2023/12/07 12:54:45;;;;;;;29.80;19.42;;;;;;;0.81;100.00;101417.47;6109513;23;20026;-83
2023/12/07 12:57:23;;;;;;;31.23;20.02;;;;;;;2.39;100.00;101667.19;6125969;23;20328;-81
2023/12/07 13:24:52;;;;;;;41.97;25.95;;;;;;;1.41;100.00;101472.59;6125532;23;20017;-82
2023/12/07 13:27:17;;;;;;;43.88;29.10;;;;;;;0.80;100.00;101364.94;6129894;23;20022;-81
2023/12/07 16:36:25;;;;;;;35.20;21.70;;;;;;;0.60;100.00;101361.84;6168754;23;20273;-83
2023/12/07 16:39:02;;;;;;;35.78;22.77;;;;;;;-0.96;100.00;101094.72;6137925;22;20168;-83
2023/12/07 16:58:36;;;;;;;34.75;21.27;;;;;;;0.71;100.00;101349.81;6145871;23;20108;-86
2023/12/07 17:01:13;;;;;;;29.13;19.70;;;;;;;-0.62;100.00;101128.09;6144936;23;20487;-83
2023/12/07 17:07:17;;;;;;;31.83;20.38;;;;;;;-0.24;100.00;101177.53;6154130;23;20071;-83
2023/12/07 17:09:54;;;;;;;27.92;19.02;;;;;;;-0.65;100.00;101089.28;6155263;23;20002;-84
2023/12/07 17:12:20;;;;;;;29.40;18.60;;;;;;;0.18;100.00;101220.97;6154930;23;20008;-84
2023/12/07 17:14:58;;;;;;;29.70;19.85;;;;;;;-0.72;100.00;101068.22;6154994;23;20009;-83
2023/12/07 17:17:23;;;;;;;33.67;19.95;;;;;;;0.85;100.00;101330.09;6155259;23;20002;-86
2023/12/07 17:20:07;;;;;;;29.55;19.15;;;;;;;0.42;100.00;101258.75;6155075;23;20011;-82
2023/12/07 17:22:39;;;;;;;28.80;18.92;;;;;;;0.91;100.00;101335.97;6154961;23;20323;-84
2023/12/07 17:25:14;;;;;;;24.20;18.15;;;;;;;0.16;100.00;101194.75;6154653;23;20113;-82
2023/12/07 17:27:39;;;;;;;31.08;19.25;;;;;;;-0.45;100.00;101086.47;6123162;23;20006;-86
2023/12/07 17:30:06;;;;;;;27.13;18.25;;;;;;;0.79;100.00;101289.53;6097585;23;20010;-83
2023/12/07 17:33:45;;;;;;;26.85;17.92;;;;;;;0.99;100.00;101303.66;6122611;23;20034;-82
2023/12/07 17:36:52;;;;;;;25.13;17.45;;;;;;;0.98;100.00;101294.31;6125531;23;20006;-82
2023/12/07 17:39:43;;;;;;;25.58;18.10;;;;;;;0.96;100.00;101283.34;6123423;23;20021;-84
2023/12/07 17:42:08;;;;;;;26.20;17.30;;;;;;;0.35;100.00;101192.81;6125502;23;20006;-84
2023/12/07 17:44:36;;;;;;;24.98;17.10;;;;;;;0.35;100.00;101188.56;6125470;23;20110;-82
2023/12/07 17:47:02;;;;;;;26.23;16.73;;;;;;;0.41;100.00;101197.81;6125441;23;20327;-85
2023/12/07 17:49:30;;;;;;;24.17;17.25;;;;;;;0.85;100.00;101278.41;6125570;23;20026;-81
2023/12/07 17:51:55;;;;;;;25.30;17.15;;;;;;;0.45;100.00;101230.75;6125414;23;20002;-85
2023/12/07 17:56:55;;;;;;;24.88;17.42;;;;;;;0.30;100.00;101199.66;6130194;23;20026;-83
2023/12/07 17:59:26;;;;;;;24.65;16.33;;;;;;;-0.70;100.00;101033.53;6125386;23;20009;-82
2023/12/07 18:01:59;;;;;;;24.13;16.58;;;;;;;-0.18;100.00;101125.88;6125113;23;20001;-81
2023/12/07 18:04:25;;;;;;;22.23;15.48;;;;;;;-0.22;100.00;101124.22;6123545;23;20045;-83
2023/12/07 18:07:03;;;;;;;25.35;16.80;;;;;;;0.18;100.00;101195.56;6125097;23;20013;-83
2023/12/07 18:09:34;;;;;;;25.02;16.35;;;;;;;-0.89;100.00;101032.94;6125094;23;20022;-84
2023/12/07 18:11:59;;;;;;;24.77;15.02;;;;;;;0.64;100.00;101276.22;6125033;23;20322;-84
2023/12/07 18:14:31;;;;;;;23.33;15.88;;;;;;;0.10;100.00;101202.47;6125586;23;20013;-83
2023/12/07 18:16:58;;;;;;;24.33;16.83;;;;;;;-0.21;100.00;101154.66;6126022;23;20002;-83
2023/12/07 18:19:32;;;;;;;24.27;15.00;;;;;;;-0.24;100.00;101159.78;6124860;23;20443;-83
2023/12/07 18:24:25;;;;;;;22.60;16.20;;;;;;;0.08;100.00;101204.19;6126978;23;20033;-84
2023/12/07 18:26:55;;;;;;;23.67;16.23;;;;;;;0.44;100.00;101251.09;6127103;23;20014;-84
2023/12/07 18:29:27;;;;;;;24.13;15.30;;;;;;;0.58;100.00;101279.66;6127183;23;20005;-83
2023/12/07 18:31:52;;;;;;;27.63;16.73;;;;;;;-0.12;100.00;101164.69;6127150;23;20013;-83
2023/12/07 18:34:17;;;;;;;22.83;15.32;;;;;;;-0.27;100.00;101120.91;6100256;23;20096;-84
2023/12/07 18:36:43;;;;;;;23.00;15.70;;;;;;;-0.52;100.00;101082.34;6127262;23;20006;-83
2023/12/07 18:39:22;;;;;;;25.77;16.20;;;;;;;0.65;100.00;101260.09;6127044;23;20013;-83
2023/12/07 18:41:48;;;;;;;23.42;15.38;;;;;;;-0.27;100.00;101110.78;6127221;23;20429;-81
2023/12/07 18:44:13;;;;;;;23.13;16.10;;;;;;;0.37;100.00;101198.69;6126960;23;20016;-83
2023/12/07 18:46:38;;;;;;;21.27;15.13;;;;;;;0.08;100.00;101139.00;6135441;23;20025;-83
2023/12/07 18:49:13;;;;;;;21.73;14.98;;;;;;;-0.68;100.00;101003.09;6159604;23;20087;-83
2023/12/07 18:51:41;;;;;;;20.08;14.45;;;;;;;0.40;100.00;101186.81;6159801;23;20001;-81
2023/12/07 18:54:06;;;;;;;22.33;15.45;;;;;;;0.77;100.00;101232.78;6185927;23;20080;-83
2023/12/07 18:56:32;;;;;;;22.10;14.68;;;;;;;0.81;100.00;101220.88;6186069;23;20037;-83
2023/12/07 18:58:57;;;;;;;23.90;14.90;;;;;;;0.45;100.00;101158.75;6185894;23;20001;-82
2023/12/07 19:01:30;;;;;;;22.75;14.70;;;;;;;0.84;100.00;101219.13;6186185;23;20057;-81
2023/12/07 19:03:58;;;;;;;17.42;14.05;;;;;;;0.87;100.00;101210.59;6186518;23;20335;-81
2023/12/07 19:06:24;;;;;;;21.00;14.35;;;;;;;0.23;100.00;101104.94;6185842;23;20087;-82
2023/12/07 19:08:50;;;;;;;21.58;13.77;;;;;;;0.66;100.00;101173.66;6159593;23;20087;-80
2023/12/07 19:11:18;;;;;;;20.05;13.63;;;;;;;0.44;100.00;101127.44;6185831;23;20028;-81
2023/12/07 19:13:55;;;;;;;18.88;14.23;;;;;;;-0.57;100.00;100948.00;6186313;23;20331;-81
2023/12/07 19:16:20;;;;;;;23.08;14.63;;;;;;;0.92;100.00;101191.03;6186024;23;20331;-81
2023/12/07 19:18:56;;;;;;;21.40;14.70;;;;;;;0.34;100.00;101107.31;6186125;23;20001;-84
2023/12/07 19:21:34;;;;;;;18.92;13.68;;;;;;;-0.08;100.00;101021.66;6186560;23;20301;-83
2023/12/07 19:24:00;;;;;;;20.02;13.68;;;;;;;-0.46;100.00;100957.97;6158875;23;20005;-81
2023/12/07 19:26:25;;;;;;;18.10;13.07;;;;;;;0.91;100.00;101173.25;6185556;23;20009;-81
2023/12/07 19:28:54;;;;;;;21.60;14.80;;;;;;;0.92;100.00;101167.31;6185328;23;20005;-81
2023/12/07 19:31:32;;;;;;;18.20;13.35;;;;;;;-0.59;100.00;100901.50;6185805;23;20008;-81
2023/12/07 19:34:05;;;;;;;19.67;14.05;;;;;;;-0.46;100.00;100909.78;6185663;23;20028;-81